Salem, Connecticut
Current Conditions -  °F | °C
As of 8:35 AM on Wednesday 28 Jan 2015 (Local Time) from KSNC Reporting Station
Clear Clear  
Wind Chill:   Ceiling: Unl
Heat Index: 16°   Visibility: 10mi
Dew Point:   Wind: 14mph
Humidity: 62%   Direction: 360°N
Pressure: 29.94"   Gusts: 20mph
Location:  41.49°N, 72.26°W
Report Text: KSNC 281335Z AUTO 36012G17KT 10SM CLR M09/M15 A2994 RMK AO2
Loading
Personal Weather Stations






























Interactive Weather Map New forecast layout! Learn more

10-Day Weather Forecast

Advertisements
Track Severe Weather on mobile